YNA weather

Natashquan Airport
Natashquan, Quebec, Canada

Public forecast

Using degrees Celsius for public forecast. Weather courtesy of forecast.io.

METAR (pilot weather report)

Retrieved 2019/09/23 11:00 UTC (4 minutes ago):

CYNA 231100Z AUTO 25011G16KT 3/4SM BR VV002 13/13 A2928 RMK SLP916 DENSITY ALT 500FT

TAF (pilot weather forecast)

Retrieved 2019/09/23 08:00 UTC (3 hours ago):

TAF CYNA 230738Z 2308/2320 27012G22KT 6SM -DZ BR OVC025 TEMPO 2308/2310 21/2SM -RA BR OVC005 FM231000 25015G25KT 21/2SM -RA BR OVC005 TEMPO 2310/2316 6SM -RA BR OVC010 FM231600 28015G25KT P6SM BKN030 RMK FCST BASED ON AUTO OBS. NXT FCST BY 231400Z